sensor_id;sensor_type;location;lat;lon;timestamp;pressure;altitude;pressure_sealevel;temperature
20733;BMP180;10527;52.124;5.196;2023-07-13T00:02:05;101238.00;;;29.20
20733;BMP180;10527;52.124;5.196;2023-07-13T00:04:32;101239.00;;;29.20
20733;BMP180;10527;52.124;5.196;2023-07-13T00:07:02;101239.00;;;29.10
20733;BMP180;10527;52.124;5.196;2023-07-13T00:09:29;101237.00;;;29.20
20733;BMP180;10527;52.124;5.196;2023-07-13T00:11:58;101240.00;;;29.10
20733;BMP180;10527;52.124;5.196;2023-07-13T00:14:28;101238.00;;;29.10
20733;BMP180;10527;52.124;5.196;2023-07-13T00:16:56;101238.00;;;29.10
20733;BMP180;10527;52.124;5.196;2023-07-13T00:19:24;101240.00;;;29.10
20733;BMP180;10527;52.124;5.196;2023-07-13T00:21:51;101234.00;;;29.10
20733;BMP180;10527;52.124;5.196;2023-07-13T00:24:24;101231.00;;;29.10
20733;BMP180;10527;52.124;5.196;2023-07-13T00:26:51;101236.00;;;29.10
20733;BMP180;10527;52.124;5.196;2023-07-13T00:29:18;101232.00;;;29.10
20733;BMP180;10527;52.124;5.196;2023-07-13T00:31:45;101238.00;;;29.10
20733;BMP180;10527;52.124;5.196;2023-07-13T00:34:13;101238.00;;;29.10
20733;BMP180;10527;52.124;5.196;2023-07-13T00:36:40;101249.00;;;29.10
20733;BMP180;10527;52.124;5.196;2023-07-13T00:39:07;101241.00;;;29.10
20733;BMP180;10527;52.124;5.196;2023-07-13T00:41:35;101244.00;;;29.10
20733;BMP180;10527;52.124;5.196;2023-07-13T00:44:04;101237.00;;;29.10
20733;BMP180;10527;52.124;5.196;2023-07-13T00:46:34;101234.00;;;29.10
20733;BMP180;10527;52.124;5.196;2023-07-13T00:49:08;101237.00;;;29.10
20733;BMP180;10527;52.124;5.196;2023-07-13T00:51:45;101233.00;;;29.10
20733;BMP180;10527;52.124;5.196;2023-07-13T00:54:26;101231.00;;;29.00
20733;BMP180;10527;52.124;5.196;2023-07-13T00:56:59;101228.00;;;29.00
20733;BMP180;10527;52.124;5.196;2023-07-13T00:59:27;101236.00;;;29.00
20733;BMP180;10527;52.124;5.196;2023-07-13T01:01:55;101224.00;;;28.90
20733;BMP180;10527;52.124;5.196;2023-07-13T01:04:25;101234.00;;;28.90
20733;BMP180;10527;52.124;5.196;2023-07-13T01:06:58;101233.00;;;28.90
20733;BMP180;10527;52.124;5.196;2023-07-13T01:09:27;101240.00;;;28.80
20733;BMP180;10527;52.124;5.196;2023-07-13T01:11:54;101235.00;;;28.80
20733;BMP180;10527;52.124;5.196;2023-07-13T01:14:21;101232.00;;;28.80
20733;BMP180;10527;52.124;5.196;2023-07-13T01:16:51;101238.00;;;28.80
20733;BMP180;10527;52.124;5.196;2023-07-13T01:19:43;101247.00;;;28.80
20733;BMP180;10527;52.124;5.196;2023-07-13T01:22:15;101249.00;;;28.70
20733;BMP180;10527;52.124;5.196;2023-07-13T01:24:47;101247.00;;;28.70
20733;BMP180;10527;52.124;5.196;2023-07-13T01:27:21;101234.00;;;28.70
20733;BMP180;10527;52.124;5.196;2023-07-13T01:29:52;101245.00;;;28.60
20733;BMP180;10527;52.124;5.196;2023-07-13T01:32:23;101255.00;;;28.60
20733;BMP180;10527;52.124;5.196;2023-07-13T01:34:54;101251.00;;;28.60
20733;BMP180;10527;52.124;5.196;2023-07-13T01:37:24;101249.00;;;28.60
20733;BMP180;10527;52.124;5.196;2023-07-13T01:39:52;101256.00;;;28.60
20733;BMP180;10527;52.124;5.196;2023-07-13T01:42:19;101257.00;;;28.60
20733;BMP180;10527;52.124;5.196;2023-07-13T01:44:46;101250.00;;;28.50
20733;BMP180;10527;52.124;5.196;2023-07-13T01:47:16;101250.00;;;28.50
20733;BMP180;10527;52.124;5.196;2023-07-13T01:49:47;101244.00;;;28.50
20733;BMP180;10527;52.124;5.196;2023-07-13T01:52:14;101253.00;;;28.40
20733;BMP180;10527;52.124;5.196;2023-07-13T01:54:41;101253.00;;;28.40
20733;BMP180;10527;52.124;5.196;2023-07-13T01:57:08;101258.00;;;28.40
20733;BMP180;10527;52.124;5.196;2023-07-13T01:59:35;101250.00;;;28.40
20733;BMP180;10527;52.124;5.196;2023-07-13T02:02:02;101262.00;;;28.30
20733;BMP180;10527;52.124;5.196;2023-07-13T02:04:29;101258.00;;;28.30
20733;BMP180;10527;52.124;5.196;2023-07-13T02:06:57;101258.00;;;28.30
20733;BMP180;10527;52.124;5.196;2023-07-13T02:09:24;101248.00;;;28.30
20733;BMP180;10527;52.124;5.196;2023-07-13T02:11:51;101253.00;;;28.30
20733;BMP180;10527;52.124;5.196;2023-07-13T02:14:18;101259.00;;;28.30
20733;BMP180;10527;52.124;5.196;2023-07-13T02:16:45;101271.00;;;28.30
20733;BMP180;10527;52.124;5.196;2023-07-13T02:19:12;101264.00;;;28.20
20733;BMP180;10527;52.124;5.196;2023-07-13T02:21:40;101260.00;;;28.20
20733;BMP180;10527;52.124;5.196;2023-07-13T02:24:07;101259.00;;;28.20
20733;BMP180;10527;52.124;5.196;2023-07-13T02:26:34;101262.00;;;28.20
20733;BMP180;10527;52.124;5.196;2023-07-13T02:29:02;101260.00;;;28.20
20733;BMP180;10527;52.124;5.196;2023-07-13T02:31:29;101265.00;;;28.20
20733;BMP180;10527;52.124;5.196;2023-07-13T02:33:56;101256.00;;;28.20
20733;BMP180;10527;52.124;5.196;2023-07-13T02:36:23;101265.00;;;28.20
20733;BMP180;10527;52.124;5.196;2023-07-13T02:38:50;101261.00;;;28.10
20733;BMP180;10527;52.124;5.196;2023-07-13T02:41:17;101266.00;;;28.10
20733;BMP180;10527;52.124;5.196;2023-07-13T02:43:44;101278.00;;;28.10
20733;BMP180;10527;52.124;5.196;2023-07-13T02:46:11;101279.00;;;28.10
20733;BMP180;10527;52.124;5.196;2023-07-13T02:48:39;101269.00;;;28.00
20733;BMP180;10527;52.124;5.196;2023-07-13T02:51:08;101271.00;;;28.00
20733;BMP180;10527;52.124;5.196;2023-07-13T02:53:35;101264.00;;;28.00
20733;BMP180;10527;52.124;5.196;2023-07-13T02:56:04;101261.00;;;27.90
20733;BMP180;10527;52.124;5.196;2023-07-13T02:58:31;101258.00;;;27.90
20733;BMP180;10527;52.124;5.196;2023-07-13T03:00:59;101264.00;;;27.90
20733;BMP180;10527;52.124;5.196;2023-07-13T03:03:27;101262.00;;;27.90
20733;BMP180;10527;52.124;5.196;2023-07-13T03:06:00;101263.00;;;27.90
20733;BMP180;10527;52.124;5.196;2023-07-13T03:08:29;101274.00;;;27.90
20733;BMP180;10527;52.124;5.196;2023-07-13T03:11:07;101269.00;;;27.90
20733;BMP180;10527;52.124;5.196;2023-07-13T03:13:35;101278.00;;;27.80
20733;BMP180;10527;52.124;5.196;2023-07-13T03:16:03;101281.00;;;27.80
20733;BMP180;10527;52.124;5.196;2023-07-13T03:18:30;101272.00;;;27.80
20733;BMP180;10527;52.124;5.196;2023-07-13T03:20:59;101271.00;;;27.80
20733;BMP180;10527;52.124;5.196;2023-07-13T03:23:26;101265.00;;;27.80
20733;BMP180;10527;52.124;5.196;2023-07-13T03:26:14;101263.00;;;27.80
20733;BMP180;10527;52.124;5.196;2023-07-13T03:28:41;101269.00;;;27.70
20733;BMP180;10527;52.124;5.196;2023-07-13T03:31:13;101267.00;;;27.70
20733;BMP180;10527;52.124;5.196;2023-07-13T03:33:41;101272.00;;;27.70
20733;BMP180;10527;52.124;5.196;2023-07-13T03:36:15;101277.00;;;27.70
20733;BMP180;10527;52.124;5.196;2023-07-13T03:38:53;101282.00;;;27.70
20733;BMP180;10527;52.124;5.196;2023-07-13T03:41:24;101284.00;;;27.70
20733;BMP180;10527;52.124;5.196;2023-07-13T03:43:51;101286.00;;;27.70
20733;BMP180;10527;52.124;5.196;2023-07-13T03:46:19;101283.00;;;27.70
20733;BMP180;10527;52.124;5.196;2023-07-13T03:48:47;101285.00;;;27.70
20733;BMP180;10527;52.124;5.196;2023-07-13T03:51:17;101284.00;;;27.70
20733;BMP180;10527;52.124;5.196;2023-07-13T03:53:46;101291.00;;;27.70
20733;BMP180;10527;52.124;5.196;2023-07-13T03:56:16;101285.00;;;27.70
20733;BMP180;10527;52.124;5.196;2023-07-13T03:58:45;101297.00;;;27.70
20733;BMP180;10527;52.124;5.196;2023-07-13T04:01:14;101297.00;;;27.70
20733;BMP180;10527;52.124;5.196;2023-07-13T04:03:42;101297.00;;;27.70
20733;BMP180;10527;52.124;5.196;2023-07-13T04:06:22;101308.00;;;27.70
20733;BMP180;10527;52.124;5.196;2023-07-13T04:08:55;101299.00;;;27.70
20733;BMP180;10527;52.124;5.196;2023-07-13T04:11:26;101306.00;;;27.70
20733;BMP180;10527;52.124;5.196;2023-07-13T04:13:53;101306.00;;;27.70
20733;BMP180;10527;52.124;5.196;2023-07-13T04:16:20;101301.00;;;27.70
20733;BMP180;10527;52.124;5.196;2023-07-13T04:18:49;101311.00;;;27.70
20733;BMP180;10527;52.124;5.196;2023-07-13T04:21:17;101312.00;;;27.70
20733;BMP180;10527;52.124;5.196;2023-07-13T04:23:43;101315.00;;;27.70
20733;BMP180;10527;52.124;5.196;2023-07-13T04:26:10;101324.00;;;27.70
20733;BMP180;10527;52.124;5.196;2023-07-13T04:28:39;101322.00;;;27.60
20733;BMP180;10527;52.124;5.196;2023-07-13T04:31:06;101311.00;;;27.60
20733;BMP180;10527;52.124;5.196;2023-07-13T04:33:32;101314.00;;;27.60
20733;BMP180;10527;52.124;5.196;2023-07-13T04:36:00;101321.00;;;27.60
20733;BMP180;10527;52.124;5.196;2023-07-13T04:38:32;101320.00;;;27.60
20733;BMP180;10527;52.124;5.196;2023-07-13T04:41:03;101331.00;;;27.60
20733;BMP180;10527;52.124;5.196;2023-07-13T04:43:32;101329.00;;;27.60
20733;BMP180;10527;52.124;5.196;2023-07-13T04:46:09;101323.00;;;27.60
20733;BMP180;10527;52.124;5.196;2023-07-13T04:48:37;101326.00;;;27.60
20733;BMP180;10527;52.124;5.196;2023-07-13T04:51:05;101332.00;;;27.60
20733;BMP180;10527;52.124;5.196;2023-07-13T04:53:33;101326.00;;;27.60
20733;BMP180;10527;52.124;5.196;2023-07-13T04:56:03;101324.00;;;27.60
20733;BMP180;10527;52.124;5.196;2023-07-13T04:58:30;101325.00;;;27.60
20733;BMP180;10527;52.124;5.196;2023-07-13T05:01:05;101336.00;;;27.60
20733;BMP180;10527;52.124;5.196;2023-07-13T05:03:33;101330.00;;;27.60
20733;BMP180;10527;52.124;5.196;2023-07-13T05:06:07;101332.00;;;27.60
20733;BMP180;10527;52.124;5.196;2023-07-13T05:08:37;101332.00;;;27.60
20733;BMP180;10527;52.124;5.196;2023-07-13T05:11:05;101340.00;;;27.70
20733;BMP180;10527;52.124;5.196;2023-07-13T05:13:34;101336.00;;;27.70
20733;BMP180;10527;52.124;5.196;2023-07-13T05:16:06;101339.00;;;27.70
20733;BMP180;10527;52.124;5.196;2023-07-13T05:18:35;101344.00;;;27.70
20733;BMP180;10527;52.124;5.196;2023-07-13T05:21:08;101340.00;;;27.80
20733;BMP180;10527;52.124;5.196;2023-07-13T05:23:36;101345.00;;;27.80
20733;BMP180;10527;52.124;5.196;2023-07-13T05:26:04;101346.00;;;27.80
20733;BMP180;10527;52.124;5.196;2023-07-13T05:28:35;101348.00;;;27.90
20733;BMP180;10527;52.124;5.196;2023-07-13T05:31:04;101357.00;;;27.90
20733;BMP180;10527;52.124;5.196;2023-07-13T05:33:32;101349.00;;;27.90
20733;BMP180;10527;52.124;5.196;2023-07-13T05:35:59;101357.00;;;27.90
20733;BMP180;10527;52.124;5.196;2023-07-13T05:38:28;101362.00;;;28.00
20733;BMP180;10527;52.124;5.196;2023-07-13T05:40:57;101355.00;;;28.00
20733;BMP180;10527;52.124;5.196;2023-07-13T05:43:26;101367.00;;;28.00
20733;BMP180;10527;52.124;5.196;2023-07-13T05:45:55;101362.00;;;28.00
20733;BMP180;10527;52.124;5.196;2023-07-13T05:48:23;101361.00;;;28.10
20733;BMP180;10527;52.124;5.196;2023-07-13T05:50:50;101364.00;;;28.10
20733;BMP180;10527;52.124;5.196;2023-07-13T05:53:18;101373.00;;;28.10
20733;BMP180;10527;52.124;5.196;2023-07-13T05:55:47;101369.00;;;28.10
20733;BMP180;10527;52.124;5.196;2023-07-13T05:58:15;101383.00;;;28.20
20733;BMP180;10527;52.124;5.196;2023-07-13T06:00:44;101379.00;;;28.20
20733;BMP180;10527;52.124;5.196;2023-07-13T06:03:11;101383.00;;;28.20
20733;BMP180;10527;52.124;5.196;2023-07-13T06:05:38;101385.00;;;28.30
20733;BMP180;10527;52.124;5.196;2023-07-13T06:08:07;101391.00;;;28.30
20733;BMP180;10527;52.124;5.196;2023-07-13T06:10:35;101395.00;;;28.40
20733;BMP180;10527;52.124;5.196;2023-07-13T06:13:04;101386.00;;;28.40
20733;BMP180;10527;52.124;5.196;2023-07-13T06:15:32;101400.00;;;28.50
20733;BMP180;10527;52.124;5.196;2023-07-13T06:17:59;101400.00;;;28.50
20733;BMP180;10527;52.124;5.196;2023-07-13T06:20:26;101399.00;;;28.50
20733;BMP180;10527;52.124;5.196;2023-07-13T06:22:53;101405.00;;;28.50
20733;BMP180;10527;52.124;5.196;2023-07-13T06:25:20;101404.00;;;28.60
20733;BMP180;10527;52.124;5.196;2023-07-13T06:27:49;101400.00;;;28.60
20733;BMP180;10527;52.124;5.196;2023-07-13T06:30:16;101404.00;;;28.60
20733;BMP180;10527;52.124;5.196;2023-07-13T06:32:43;101408.00;;;28.70
20733;BMP180;10527;52.124;5.196;2023-07-13T06:35:10;101403.00;;;28.70
20733;BMP180;10527;52.124;5.196;2023-07-13T06:37:39;101408.00;;;28.80
20733;BMP180;10527;52.124;5.196;2023-07-13T06:40:07;101403.00;;;28.80
20733;BMP180;10527;52.124;5.196;2023-07-13T06:42:34;101409.00;;;28.90
20733;BMP180;10527;52.124;5.196;2023-07-13T06:45:02;101406.00;;;28.90
20733;BMP180;10527;52.124;5.196;2023-07-13T06:47:28;101404.00;;;28.90
20733;BMP180;10527;52.124;5.196;2023-07-13T06:50:00;101424.00;;;29.00
20733;BMP180;10527;52.124;5.196;2023-07-13T06:52:27;101414.00;;;29.10
20733;BMP180;10527;52.124;5.196;2023-07-13T06:54:54;101428.00;;;29.10
20733;BMP180;10527;52.124;5.196;2023-07-13T06:57:21;101433.00;;;29.10
20733;BMP180;10527;52.124;5.196;2023-07-13T06:59:48;101438.00;;;29.10
20733;BMP180;10527;52.124;5.196;2023-07-13T07:02:15;101438.00;;;29.20
20733;BMP180;10527;52.124;5.196;2023-07-13T07:04:42;101438.00;;;29.20
20733;BMP180;10527;52.124;5.196;2023-07-13T07:07:09;101448.00;;;29.20
20733;BMP180;10527;52.124;5.196;2023-07-13T07:09:36;101449.00;;;29.20
20733;BMP180;10527;52.124;5.196;2023-07-13T07:12:04;101444.00;;;29.20
20733;BMP180;10527;52.124;5.196;2023-07-13T07:14:31;101462.00;;;29.10
20733;BMP180;10527;52.124;5.196;2023-07-13T07:16:58;101460.00;;;29.00
20733;BMP180;10527;52.124;5.196;2023-07-13T07:19:29;101454.00;;;29.00
20733;BMP180;10527;52.124;5.196;2023-07-13T07:21:57;101459.00;;;28.90
20733;BMP180;10527;52.124;5.196;2023-07-13T07:24:24;101451.00;;;28.80
20733;BMP180;10527;52.124;5.196;2023-07-13T07:26:50;101452.00;;;28.80
20733;BMP180;10527;52.124;5.196;2023-07-13T07:29:22;101448.00;;;28.80
20733;BMP180;10527;52.124;5.196;2023-07-13T07:31:53;101447.00;;;28.80
20733;BMP180;10527;52.124;5.196;2023-07-13T07:34:23;101441.00;;;28.80
20733;BMP180;10527;52.124;5.196;2023-07-13T07:36:51;101438.00;;;28.80
20733;BMP180;10527;52.124;5.196;2023-07-13T07:39:21;101438.00;;;28.80
20733;BMP180;10527;52.124;5.196;2023-07-13T07:41:48;101433.00;;;28.80
20733;BMP180;10527;52.124;5.196;2023-07-13T07:44:17;101447.00;;;28.80
20733;BMP180;10527;52.124;5.196;2023-07-13T07:46:45;101443.00;;;28.80
20733;BMP180;10527;52.124;5.196;2023-07-13T07:49:12;101444.00;;;28.90
20733;BMP180;10527;52.124;5.196;2023-07-13T07:51:39;101442.00;;;28.90
20733;BMP180;10527;52.124;5.196;2023-07-13T07:54:06;101453.00;;;28.90
20733;BMP180;10527;52.124;5.196;2023-07-13T07:56:33;101455.00;;;29.00
20733;BMP180;10527;52.124;5.196;2023-07-13T07:59:03;101462.00;;;29.20
20733;BMP180;10527;52.124;5.196;2023-07-13T08:01:33;101451.00;;;29.30
20733;BMP180;10527;52.124;5.196;2023-07-13T08:04:03;101455.00;;;29.50
20733;BMP180;10527;52.124;5.196;2023-07-13T08:06:33;101444.00;;;29.70
20733;BMP180;10527;52.124;5.196;2023-07-13T08:09:03;101441.00;;;29.80
20733;BMP180;10527;52.124;5.196;2023-07-13T08:11:34;101438.00;;;29.90
20733;BMP180;10527;52.124;5.196;2023-07-13T08:14:06;101446.00;;;30.00
20733;BMP180;10527;52.124;5.196;2023-07-13T08:16:33;101456.00;;;30.20
20733;BMP180;10527;52.124;5.196;2023-07-13T08:19:00;101446.00;;;30.30
20733;BMP180;10527;52.124;5.196;2023-07-13T08:21:27;101456.00;;;30.40
20733;BMP180;10527;52.124;5.196;2023-07-13T08:23:55;101456.00;;;30.50
20733;BMP180;10527;52.124;5.196;2023-07-13T08:26:22;101447.00;;;30.60
20733;BMP180;10527;52.124;5.196;2023-07-13T08:28:49;101457.00;;;30.60
20733;BMP180;10527;52.124;5.196;2023-07-13T08:31:16;101463.00;;;30.60
20733;BMP180;10527;52.124;5.196;2023-07-13T08:33:43;101458.00;;;30.60
20733;BMP180;10527;52.124;5.196;2023-07-13T08:36:10;101460.00;;;30.50
20733;BMP180;10527;52.124;5.196;2023-07-13T08:38:37;101471.00;;;30.30
20733;BMP180;10527;52.124;5.196;2023-07-13T08:41:17;101491.00;;;30.20
20733;BMP180;10527;52.124;5.196;2023-07-13T08:43:55;101494.00;;;30.00
20733;BMP180;10527;52.124;5.196;2023-07-13T08:46:36;101486.00;;;29.90
20733;BMP180;10527;52.124;5.196;2023-07-13T08:49:13;101486.00;;;29.70
20733;BMP180;10527;52.124;5.196;2023-07-13T08:52:00;101489.00;;;29.60
20733;BMP180;10527;52.124;5.196;2023-07-13T08:54:50;101487.00;;;29.50
20733;BMP180;10527;52.124;5.196;2023-07-13T08:57:32;101488.00;;;29.40
20733;BMP180;10527;52.124;5.196;2023-07-13T09:00:00;101484.00;;;29.20
20733;BMP180;10527;52.124;5.196;2023-07-13T09:02:57;101480.00;;;29.10
20733;BMP180;10527;52.124;5.196;2023-07-13T09:05:38;101486.00;;;29.00
20733;BMP180;10527;52.124;5.196;2023-07-13T09:08:50;101475.00;;;29.00
20733;BMP180;10527;52.124;5.196;2023-07-13T09:11:56;101484.00;;;29.00
20733;BMP180;10527;52.124;5.196;2023-07-13T09:14:48;101468.00;;;29.10
20733;BMP180;10527;52.124;5.196;2023-07-13T09:17:29;101467.00;;;29.20
20733;BMP180;10527;52.124;5.196;2023-07-13T09:20:26;101476.00;;;29.30
20733;BMP180;10527;52.124;5.196;2023-07-13T09:22:59;101478.00;;;29.40
20733;BMP180;10527;52.124;5.196;2023-07-13T09:25:35;101482.00;;;29.60
20733;BMP180;10527;52.124;5.196;2023-07-13T09:28:15;101479.00;;;29.70
20733;BMP180;10527;52.124;5.196;2023-07-13T09:31:09;101489.00;;;29.80
20733;BMP180;10527;52.124;5.196;2023-07-13T09:33:40;101526.00;;;29.80
20733;BMP180;10527;52.124;5.196;2023-07-13T09:36:22;101538.00;;;29.70
20733;BMP180;10527;52.124;5.196;2023-07-13T09:39:35;101513.00;;;29.40
20733;BMP180;10527;52.124;5.196;2023-07-13T09:42:19;101503.00;;;29.10
20733;BMP180;10527;52.124;5.196;2023-07-13T09:44:59;101496.00;;;28.90
20733;BMP180;10527;52.124;5.196;2023-07-13T09:47:32;101494.00;;;28.70
20733;BMP180;10527;52.124;5.196;2023-07-13T09:50:14;101492.00;;;28.60
20733;BMP180;10527;52.124;5.196;2023-07-13T09:52:50;101495.00;;;28.60
20733;BMP180;10527;52.124;5.196;2023-07-13T09:55:40;101513.00;;;28.60
20733;BMP180;10527;52.124;5.196;2023-07-13T09:58:22;101502.00;;;28.70
20733;BMP180;10527;52.124;5.196;2023-07-13T10:01:03;101498.00;;;28.70
20733;BMP180;10527;52.124;5.196;2023-07-13T10:03:36;101506.00;;;28.80
20733;BMP180;10527;52.124;5.196;2023-07-13T10:06:18;101503.00;;;28.90
20733;BMP180;10527;52.124;5.196;2023-07-13T10:08:47;101507.00;;;29.00
20733;BMP180;10527;52.124;5.196;2023-07-13T10:11:29;101516.00;;;29.00
20733;BMP180;10527;52.124;5.196;2023-07-13T10:14:00;101526.00;;;29.10
20733;BMP180;10527;52.124;5.196;2023-07-13T10:16:33;101525.00;;;29.20
20733;BMP180;10527;52.124;5.196;2023-07-13T10:19:05;101533.00;;;29.30
20733;BMP180;10527;52.124;5.196;2023-07-13T10:21:49;101523.00;;;29.30
20733;BMP180;10527;52.124;5.196;2023-07-13T10:24:23;101524.00;;;29.30
20733;BMP180;10527;52.124;5.196;2023-07-13T10:27:17;101533.00;;;29.30
20733;BMP180;10527;52.124;5.196;2023-07-13T10:29:55;101532.00;;;29.40
20733;BMP180;10527;52.124;5.196;2023-07-13T10:32:24;101539.00;;;29.50
20733;BMP180;10527;52.124;5.196;2023-07-13T10:34:52;101533.00;;;29.60
20733;BMP180;10527;52.124;5.196;2023-07-13T10:37:27;101529.00;;;29.70
20733;BMP180;10527;52.124;5.196;2023-07-13T10:39:57;101526.00;;;29.90
20733;BMP180;10527;52.124;5.196;2023-07-13T10:42:36;101529.00;;;30.10
20733;BMP180;10527;52.124;5.196;2023-07-13T10:45:34;101545.00;;;30.20
20733;BMP180;10527;52.124;5.196;2023-07-13T10:48:03;101528.00;;;30.20
20733;BMP180;10527;52.124;5.196;2023-07-13T10:50:35;101538.00;;;30.30
20733;BMP180;10527;52.124;5.196;2023-07-13T10:58:28;101530.00;;;30.30
20733;BMP180;10527;52.124;5.196;2023-07-13T11:01:15;101531.00;;;30.40
20733;BMP180;10527;52.124;5.196;2023-07-13T11:06:17;101532.00;;;30.60
20733;BMP180;10527;52.124;5.196;2023-07-13T11:09:18;101531.00;;;30.70
20733;BMP180;10527;52.124;5.196;2023-07-13T11:11:46;101536.00;;;30.80
20733;BMP180;10527;52.124;5.196;2023-07-13T11:14:42;101544.00;;;30.90
20733;BMP180;10527;52.124;5.196;2023-07-13T11:25:44;101547.00;;;30.80
20733;BMP180;10527;52.124;5.196;2023-07-13T11:33:53;101551.00;;;30.80
20733;BMP180;10527;52.124;5.196;2023-07-13T11:36:27;101554.00;;;30.80
20733;BMP180;10527;52.124;5.196;2023-07-13T11:39:02;101550.00;;;30.80
20733;BMP180;10527;52.124;5.196;2023-07-13T11:41:34;101559.00;;;30.80
20733;BMP180;10527;52.124;5.196;2023-07-13T11:46:38;101556.00;;;30.80
20733;BMP180;10527;52.124;5.196;2023-07-13T11:49:07;101551.00;;;30.80
20733;BMP180;10527;52.124;5.196;2023-07-13T11:51:37;101559.00;;;30.70
20733;BMP180;10527;52.124;5.196;2023-07-13T11:54:29;101562.00;;;30.70
20733;BMP180;10527;52.124;5.196;2023-07-13T11:57:28;101566.00;;;30.70
20733;BMP180;10527;52.124;5.196;2023-07-13T11:59:58;101582.00;;;30.70
20733;BMP180;10527;52.124;5.196;2023-07-13T12:02:31;101563.00;;;30.70
20733;BMP180;10527;52.124;5.196;2023-07-13T12:05:02;101563.00;;;30.60
20733;BMP180;10527;52.124;5.196;2023-07-13T12:07:32;101563.00;;;30.60
20733;BMP180;10527;52.124;5.196;2023-07-13T12:10:20;101565.00;;;30.60
20733;BMP180;10527;52.124;5.196;2023-07-13T12:12:57;101562.00;;;30.60
20733;BMP180;10527;52.124;5.196;2023-07-13T12:18:20;101564.00;;;30.70
20733;BMP180;10527;52.124;5.196;2023-07-13T12:20:51;101563.00;;;30.70
20733;BMP180;10527;52.124;5.196;2023-07-13T12:23:32;101555.00;;;30.80
20733;BMP180;10527;52.124;5.196;2023-07-13T12:26:06;101555.00;;;30.90
20733;BMP180;10527;52.124;5.196;2023-07-13T12:28:51;101557.00;;;31.00
20733;BMP180;10527;52.124;5.196;2023-07-13T12:31:41;101560.00;;;31.10
20733;BMP180;10527;52.124;5.196;2023-07-13T12:34:18;101561.00;;;31.20
20733;BMP180;10527;52.124;5.196;2023-07-13T12:36:55;101567.00;;;31.30
20733;BMP180;10527;52.124;5.196;2023-07-13T12:39:33;101558.00;;;31.30
20733;BMP180;10527;52.124;5.196;2023-07-13T12:42:25;101561.00;;;31.40
20733;BMP180;10527;52.124;5.196;2023-07-13T12:47:49;101568.00;;;31.50
20733;BMP180;10527;52.124;5.196;2023-07-13T12:50:22;101561.00;;;31.60
20733;BMP180;10527;52.124;5.196;2023-07-13T12:53:03;101561.00;;;31.60
20733;BMP180;10527;52.124;5.196;2023-07-13T12:55:30;101564.00;;;31.60
20733;BMP180;10527;52.124;5.196;2023-07-13T12:58:04;101567.00;;;31.60
20733;BMP180;10527;52.124;5.196;2023-07-13T13:00:36;101559.00;;;31.60
20733;BMP180;10527;52.124;5.196;2023-07-13T13:03:21;101562.00;;;31.60
20733;BMP180;10527;52.124;5.196;2023-07-13T13:06:18;101565.00;;;31.60
20733;BMP180;10527;52.124;5.196;2023-07-13T13:08:56;101585.00;;;31.60
20733;BMP180;10527;52.124;5.196;2023-07-13T13:11:29;101578.00;;;31.60
20733;BMP180;10527;52.124;5.196;2023-07-13T13:13:57;101569.00;;;31.50
20733;BMP180;10527;52.124;5.196;2023-07-13T13:16:32;101575.00;;;31.50
20733;BMP180;10527;52.124;5.196;2023-07-13T13:21:46;101575.00;;;31.50
20733;BMP180;10527;52.124;5.196;2023-07-13T13:24:21;101578.00;;;31.50
20733;BMP180;10527;52.124;5.196;2023-07-13T13:26:50;101582.00;;;31.60
20733;BMP180;10527;52.124;5.196;2023-07-13T13:29:24;101585.00;;;31.60
20733;BMP180;10527;52.124;5.196;2023-07-13T13:31:54;101582.00;;;31.70
20733;BMP180;10527;52.124;5.196;2023-07-13T13:34:24;101591.00;;;31.70
20733;BMP180;10527;52.124;5.196;2023-07-13T13:36:54;101578.00;;;31.70
20733;BMP180;10527;52.124;5.196;2023-07-13T13:39:34;101590.00;;;31.80
20733;BMP180;10527;52.124;5.196;2023-07-13T13:42:01;101584.00;;;31.80
20733;BMP180;10527;52.124;5.196;2023-07-13T13:44:28;101594.00;;;31.90
20733;BMP180;10527;52.124;5.196;2023-07-13T13:46:57;101589.00;;;32.00
20733;BMP180;10527;52.124;5.196;2023-07-13T13:49:27;101588.00;;;32.00
20733;BMP180;10527;52.124;5.196;2023-07-13T13:51:55;101592.00;;;32.00
20733;BMP180;10527;52.124;5.196;2023-07-13T13:54:24;101587.00;;;32.00
20733;BMP180;10527;52.124;5.196;2023-07-13T13:56:53;101582.00;;;32.10
20733;BMP180;10527;52.124;5.196;2023-07-13T13:59:20;101590.00;;;32.10
20733;BMP180;10527;52.124;5.196;2023-07-13T14:01:48;101588.00;;;32.20
20733;BMP180;10527;52.124;5.196;2023-07-13T14:04:20;101585.00;;;32.10
20733;BMP180;10527;52.124;5.196;2023-07-13T14:06:50;101588.00;;;32.10
20733;BMP180;10527;52.124;5.196;2023-07-13T14:09:19;101596.00;;;32.10
20733;BMP180;10527;52.124;5.196;2023-07-13T14:11:49;101597.00;;;32.10
20733;BMP180;10527;52.124;5.196;2023-07-13T14:14:28;101604.00;;;32.10
20733;BMP180;10527;52.124;5.196;2023-07-13T14:16:55;101589.00;;;32.10
20733;BMP180;10527;52.124;5.196;2023-07-13T14:19:24;101588.00;;;32.00
20733;BMP180;10527;52.124;5.196;2023-07-13T14:21:51;101585.00;;;32.00
20733;BMP180;10527;52.124;5.196;2023-07-13T14:24:21;101591.00;;;32.00
20733;BMP180;10527;52.124;5.196;2023-07-13T14:26:48;101596.00;;;32.00
20733;BMP180;10527;52.124;5.196;2023-07-13T14:29:18;101586.00;;;32.00
20733;BMP180;10527;52.124;5.196;2023-07-13T14:31:53;101588.00;;;32.00
20733;BMP180;10527;52.124;5.196;2023-07-13T14:34:21;101596.00;;;32.00
20733;BMP180;10527;52.124;5.196;2023-07-13T14:36:49;101595.00;;;32.00
20733;BMP180;10527;52.124;5.196;2023-07-13T14:39:21;101595.00;;;32.00
20733;BMP180;10527;52.124;5.196;2023-07-13T14:41:55;101599.00;;;32.10
20733;BMP180;10527;52.124;5.196;2023-07-13T14:44:30;101612.00;;;32.10
20733;BMP180;10527;52.124;5.196;2023-07-13T14:46:59;101601.00;;;32.10
20733;BMP180;10527;52.124;5.196;2023-07-13T14:49:36;101599.00;;;32.20
20733;BMP180;10527;52.124;5.196;2023-07-13T14:52:24;101600.00;;;32.10
20733;BMP180;10527;52.124;5.196;2023-07-13T14:54:54;101606.00;;;32.10
20733;BMP180;10527;52.124;5.196;2023-07-13T14:57:21;101597.00;;;32.10